Time;durP1;ratioP1;P1;durP2;ratioP2;P2;SDS_P1;SDS_P2;PMS_P1;PMS_P2;Temp;Humidity;BMP_temperature;BMP_pressure;BME280_temperature;BME280_humidity;BME280_pressure;Samples;Min_cycle;Max_cycle;Signal;HPM_P1;HPM_P2
2022/04/09 00:00:12;;;;;;;0.10;0.10;;;;;;;5.40;50.80;100849.84;7355368;19;20015;-64
2022/04/09 00:02:37;;;;;;;0.00;0.00;;;;;;;5.40;51.32;100860.19;7360513;19;20006;-65
2022/04/09 00:05:03;;;;;;;0.00;0.00;;;;;;;5.31;51.40;100860.19;7360487;19;20335;-65
2022/04/09 00:07:28;;;;;;;0.00;0.00;;;;;;;5.33;51.54;100868.84;7348555;19;20048;-65
2022/04/09 00:09:54;;;;;;;0.00;0.00;;;;;;;5.32;51.25;100877.47;7359569;19;20011;-65
2022/04/09 00:12:19;;;;;;;0.00;0.00;;;;;;;5.28;51.14;100875.72;7356108;19;20014;-65
2022/04/09 00:14:44;;;;;;;0.10;0.10;;;;;;;5.26;51.35;100869.66;7360503;19;20019;-64
2022/04/09 00:17:10;;;;;;;0.00;0.00;;;;;;;5.22;51.23;100878.31;7351653;19;20010;-65
2022/04/09 00:19:36;;;;;;;0.00;0.00;;;;;;;5.20;51.75;100877.44;7357577;19;20010;-64
2022/04/09 00:22:03;;;;;;;0.00;0.00;;;;;;;5.16;51.88;100875.69;7356551;19;20014;-65
2022/04/09 00:24:28;;;;;;;0.00;0.00;;;;;;;5.12;52.10;100879.13;7337512;19;20037;-64
2022/04/09 00:26:53;;;;;;;0.00;0.00;;;;;;;5.10;51.79;100886.03;7360356;19;20497;-65
2022/04/09 00:29:19;;;;;;;0.03;0.03;;;;;;;5.06;52.18;100885.16;7356460;19;20006;-63
2022/04/09 00:31:44;;;;;;;0.00;0.00;;;;;;;5.02;51.83;100893.78;7359601;19;20018;-67
2022/04/09 00:34:09;;;;;;;0.00;0.00;;;;;;;4.98;52.20;100893.78;7349681;19;20658;-66
2022/04/09 00:36:35;;;;;;;0.00;0.00;;;;;;;4.94;51.84;100896.34;7356033;19;20014;-67
2022/04/09 00:39:00;;;;;;;0.00;0.00;;;;;;;4.90;52.08;100899.75;7360737;19;20619;-65
2022/04/09 00:41:26;;;;;;;0.00;0.00;;;;;;;4.78;52.63;100889.38;7348436;19;20047;-67
2022/04/09 00:43:51;;;;;;;0.00;0.00;;;;;;;4.83;52.65;100898.03;7354184;19;20027;-66
2022/04/09 00:46:17;;;;;;;0.00;0.00;;;;;;;4.79;51.63;100901.47;7352248;19;20017;-67
2022/04/09 00:48:43;;;;;;;0.00;0.00;;;;;;;4.76;52.40;100901.44;7359408;19;20021;-66
2022/04/09 00:51:09;;;;;;;0.00;0.00;;;;;;;4.71;52.27;100897.97;7352008;19;20022;-66
2022/04/09 00:53:37;;;;;;;0.00;0.00;;;;;;;4.68;52.24;100897.97;7356017;19;20011;-66
2022/04/09 00:56:20;;;;;;;;;;;;;;;4.63;49.64;100900.53;7361516;19;20014;-66
2022/04/09 00:58:55;;;;;;;0.00;0.00;;;;;;;4.58;52.21;100904.81;7358139;19;19926;-66
2022/04/09 01:01:22;;;;;;;0.00;0.00;;;;;;;4.40;52.98;100877.13;7353564;19;20386;-65
2022/04/09 01:03:49;;;;;;;0.00;0.00;;;;;;;4.42;52.94;100895.25;7352053;19;20605;-65
2022/04/09 01:06:15;;;;;;;0.00;0.00;;;;;;;4.43;53.17;100908.19;7355249;19;20081;-66
2022/04/09 01:08:41;;;;;;;0.00;0.00;;;;;;;4.40;52.83;100902.97;7359016;19;20081;-66
2022/04/09 01:11:06;;;;;;;0.00;0.00;;;;;;;4.37;53.42;100900.41;7359285;19;20013;-66
2022/04/09 01:13:32;;;;;;;0.00;0.00;;;;;;;4.30;53.71;100906.38;7352239;19;20016;-65
2022/04/09 01:15:57;;;;;;;0.00;0.00;;;;;;;4.33;53.56;100910.72;7340580;19;20014;-66
2022/04/09 01:18:23;;;;;;;0.00;0.00;;;;;;;4.31;53.74;100913.28;7342682;19;20070;-66
2022/04/09 01:20:48;;;;;;;0.00;0.00;;;;;;;4.18;53.26;100895.97;7359926;19;20025;-66
2022/04/09 01:23:13;;;;;;;0.00;0.00;;;;;;;4.27;53.39;100921.00;7359754;19;20599;-65
2022/04/09 01:25:40;;;;;;;0.00;0.00;;;;;;;4.25;53.48;100918.41;7350276;19;20018;-65
2022/04/09 01:28:06;;;;;;;0.00;0.00;;;;;;;4.22;53.81;100918.41;7354770;19;20013;-65
2022/04/09 01:30:32;;;;;;;0.00;0.00;;;;;;;4.21;53.47;100915.78;7355160;19;20018;-65
2022/04/09 01:32:57;;;;;;;0.00;0.00;;;;;;;4.14;54.42;100914.88;7348748;19;20020;-65
2022/04/09 01:35:23;;;;;;;0.00;0.00;;;;;;;4.16;54.09;100920.94;7358611;19;20002;-66
2022/04/09 01:37:48;;;;;;;0.00;0.00;;;;;;;4.13;54.68;100926.09;7351522;19;20996;-65
2022/04/09 01:40:14;;;;;;;0.00;0.00;;;;;;;4.10;54.31;100928.63;7359445;19;20014;-66
2022/04/09 01:42:39;;;;;;;0.00;0.00;;;;;;;3.99;54.54;100917.34;7351889;19;20046;-65
2022/04/09 01:45:06;;;;;;;0.00;0.00;;;;;;;4.09;55.13;100942.41;7358508;19;20043;-66
2022/04/09 01:47:32;;;;;;;0.00;0.00;;;;;;;4.08;54.60;100945.84;7353634;19;20098;-66
2022/04/09 01:49:57;;;;;;;0.00;0.00;;;;;;;4.06;54.62;100942.41;7354700;19;20118;-67
2022/04/09 01:52:23;;;;;;;0.00;0.00;;;;;;;4.05;55.02;100941.50;7353469;19;20125;-67
2022/04/09 01:54:48;;;;;;;0.00;0.00;;;;;;;3.85;55.16;100917.22;7356644;19;20016;-66
2022/04/09 01:57:15;;;;;;;0.08;0.08;;;;;;;3.97;55.07;100937.16;7356365;19;20010;-66
2022/04/09 01:59:43;;;;;;;0.00;0.00;;;;;;;4.02;55.01;100948.41;7342466;19;20010;-66
2022/04/09 02:02:08;;;;;;;0.10;0.10;;;;;;;3.99;55.53;100941.47;7354197;19;20031;-66
2022/04/09 02:04:34;;;;;;;0.00;0.00;;;;;;;4.00;55.90;100952.66;7355563;19;20006;-66
2022/04/09 02:06:59;;;;;;;0.00;0.00;;;;;;;3.98;55.55;100938.88;7352731;19;20565;-65
2022/04/09 02:09:25;;;;;;;0.00;0.00;;;;;;;3.90;55.72;100937.13;7354250;19;20010;-65
2022/04/09 02:11:50;;;;;;;0.10;0.10;;;;;;;3.99;55.24;100948.34;7341665;19;20009;-65
2022/04/09 02:14:16;;;;;;;0.00;0.00;;;;;;;4.00;56.03;100952.66;7352767;19;20002;-65
2022/04/09 02:16:41;;;;;;;0.00;0.00;;;;;;;3.92;54.94;100938.84;7353082;19;20032;-65
2022/04/09 02:19:08;;;;;;;0.00;0.00;;;;;;;3.88;55.41;100933.63;7343913;19;20015;-65
2022/04/09 02:21:34;;;;;;;0.00;0.00;;;;;;;3.98;55.93;100949.22;7351079;19;20014;-65
2022/04/09 02:23:59;;;;;;;0.00;0.00;;;;;;;3.98;56.11;100949.22;7354940;19;20011;-65
2022/04/09 02:26:25;;;;;;;0.03;0.03;;;;;;;3.96;55.86;100956.09;7347780;19;20025;-65
2022/04/09 02:28:52;;;;;;;0.00;0.00;;;;;;;3.78;55.41;100926.66;7356669;19;20044;-65
2022/04/09 02:31:17;;;;;;;0.05;0.05;;;;;;;3.93;56.16;100959.50;7348612;19;20014;-66
2022/04/09 02:33:44;;;;;;;0.00;0.00;;;;;;;3.88;56.38;100951.72;7350027;19;20676;-65
2022/04/09 02:36:12;;;;;;;0.00;0.00;;;;;;;3.92;56.01;100959.50;7347918;19;20041;-65
2022/04/09 02:38:37;;;;;;;;;;;;;;;3.93;52.84;100971.56;7356100;19;20014;-65
2022/04/09 02:41:03;;;;;;;0.00;0.00;;;;;;;3.89;55.71;100971.53;7358344;19;19921;-66
2022/04/09 02:43:28;;;;;;;0.00;0.00;;;;;;;3.87;55.71;100973.25;7348687;19;20010;-66
2022/04/09 02:45:54;;;;;;;0.00;0.00;;;;;;;3.81;54.66;100973.19;7360898;19;20385;-65
2022/04/09 02:48:20;;;;;;;0.00;0.00;;;;;;;3.79;55.37;100972.28;7354109;19;20034;-65
2022/04/09 02:50:45;;;;;;;0.00;0.00;;;;;;;3.77;55.13;100976.59;7357349;19;20018;-66
2022/04/09 02:53:11;;;;;;;0.00;0.00;;;;;;;3.71;55.75;100971.38;7356946;19;20810;-66
2022/04/09 02:55:36;;;;;;;0.00;0.00;;;;;;;3.71;56.17;100971.38;7357768;19;20017;-66
2022/04/09 02:58:02;;;;;;;0.00;0.00;;;;;;;3.68;55.26;100971.34;7352330;19;20010;-65
2022/04/09 03:00:27;;;;;;;0.10;0.10;;;;;;;3.66;56.10;100973.06;7361998;19;20034;-65
2022/04/09 03:02:53;;;;;;;0.00;0.00;;;;;;;3.64;56.43;100977.31;7348956;19;20054;-65
2022/04/09 03:05:18;;;;;;;0.00;0.00;;;;;;;3.59;56.01;100977.28;7350146;19;20010;-67
2022/04/09 03:07:44;;;;;;;0.00;0.00;;;;;;;3.59;56.01;100971.25;7355618;19;22122;-67
2022/04/09 03:10:09;;;;;;;0.00;0.00;;;;;;;3.48;55.71;100959.94;7358130;19;20027;-66
2022/04/09 03:12:35;;;;;;;0.00;0.00;;;;;;;3.51;56.21;100972.91;7360175;19;20019;-67
2022/04/09 03:15:00;;;;;;;0.00;0.00;;;;;;;3.52;56.21;100974.63;7358192;19;20024;-66
2022/04/09 03:17:26;;;;;;;0.00;0.00;;;;;;;3.50;56.27;100981.50;7352661;19;20018;-65
2022/04/09 03:19:51;;;;;;;0.00;0.00;;;;;;;3.35;56.38;100957.25;7359012;19;20900;-65
2022/04/09 03:22:17;;;;;;;0.00;0.00;;;;;;;3.46;56.66;100974.56;7357326;19;20018;-65
2022/04/09 03:24:42;;;;;;;0.00;0.00;;;;;;;3.41;56.70;100971.94;7358348;19;20003;-67
2022/04/09 03:27:08;;;;;;;0.00;0.00;;;;;;;3.43;55.99;100982.25;7363191;19;20069;-66
2022/04/09 03:29:33;;;;;;;0.00;0.00;;;;;;;3.39;56.09;100979.63;7362761;19;20010;-66
2022/04/09 03:32:00;;;;;;;0.00;0.00;;;;;;;3.37;55.58;100986.50;7361377;19;20035;-66
2022/04/09 03:34:26;;;;;;;0.00;0.00;;;;;;;3.36;56.11;100978.75;7359214;19;20018;-66
2022/04/09 03:36:52;;;;;;;0.00;0.00;;;;;;;3.21;56.27;100952.78;7353481;19;20014;-65
2022/04/09 03:39:17;;;;;;;0.00;0.00;;;;;;;3.28;56.37;100968.34;7361664;19;20014;-65
2022/04/09 03:41:42;;;;;;;0.00;0.00;;;;;;;3.28;56.76;100970.91;7355318;19;20085;-65
2022/04/09 03:44:08;;;;;;;0.00;0.00;;;;;;;3.25;55.88;100976.06;7363472;19;20041;-65
2022/04/09 03:46:33;;;;;;;0.00;0.00;;;;;;;3.17;56.28;100972.50;7355263;19;20086;-65
2022/04/09 03:48:58;;;;;;;0.00;0.00;;;;;;;3.20;55.96;100982.88;7362383;19;20018;-65
2022/04/09 03:51:24;;;;;;;0.00;0.00;;;;;;;3.17;56.55;100990.56;7359274;19;20018;-66
2022/04/09 03:53:49;;;;;;;0.00;0.00;;;;;;;3.13;55.67;100987.09;7359986;19;20018;-65
2022/04/09 03:56:15;;;;;;;0.00;0.00;;;;;;;3.07;56.29;100973.25;7351588;19;20014;-65
2022/04/09 03:58:40;;;;;;;0.00;0.00;;;;;;;2.99;56.56;100973.16;7348687;19;20486;-66
2022/04/09 04:01:05;;;;;;;0.00;0.00;;;;;;;3.03;56.40;100981.78;7356716;19;20620;-64
2022/04/09 04:03:32;;;;;;;0.00;0.00;;;;;;;3.01;56.78;100979.19;7359162;19;20025;-66
2022/04/09 04:05:57;;;;;;;0.00;0.00;;;;;;;2.97;56.88;100984.31;7357103;19;20048;-65
2022/04/09 04:08:22;;;;;;;0.00;0.00;;;;;;;2.96;57.42;100992.91;7351282;19;20014;-66
2022/04/09 04:10:48;;;;;;;0.00;0.00;;;;;;;2.93;57.66;100987.69;7355246;19;20076;-65
2022/04/09 04:13:13;;;;;;;0.10;0.10;;;;;;;2.91;57.20;100989.38;7350105;19;20018;-65
2022/04/09 04:15:40;;;;;;;0.00;0.00;;;;;;;2.90;57.15;100991.09;7360312;19;20349;-66
2022/04/09 04:18:06;;;;;;;0.00;0.00;;;;;;;2.86;56.02;100997.94;7355255;19;20011;-65
2022/04/09 04:20:33;;;;;;;0.00;0.00;;;;;;;2.85;56.39;101010.81;7354342;19;20350;-66
2022/04/09 04:22:58;;;;;;;0.08;0.08;;;;;;;2.81;56.90;101009.88;7359010;19;20581;-64
2022/04/09 04:25:24;;;;;;;0.05;0.05;;;;;;;2.77;56.89;101008.09;7355545;19;20012;-66
2022/04/09 04:27:50;;;;;;;0.03;0.03;;;;;;;2.62;56.66;100987.25;7360620;19;20021;-65
2022/04/09 04:30:16;;;;;;;0.00;0.00;;;;;;;2.72;56.39;101014.06;7358399;19;20013;-66
2022/04/09 04:32:42;;;;;;;0.05;0.05;;;;;;;2.64;57.18;101007.94;7352069;19;20015;-65
2022/04/09 04:35:09;;;;;;;0.00;0.00;;;;;;;2.63;57.14;101014.78;7357926;19;20017;-66
2022/04/09 04:37:45;;;;;;;0.00;0.00;;;;;;;2.63;56.38;101017.34;7360140;19;20002;-66
2022/04/09 04:40:12;;;;;;;0.00;0.00;;;;;;;2.58;57.46;101022.44;7355833;19;20026;-66
2022/04/09 04:42:38;;;;;;;0.03;0.03;;;;;;;2.55;57.28;101030.16;7363283;19;20021;-66
2022/04/09 04:45:04;;;;;;;0.10;0.10;;;;;;;2.54;56.56;101024.97;7356277;19;20010;-66
2022/04/09 04:47:30;;;;;;;0.00;0.00;;;;;;;2.53;58.01;101033.53;7360853;19;20019;-65
2022/04/09 04:49:55;;;;;;;0.00;0.00;;;;;;;2.49;58.35;101036.94;7362279;19;20570;-66
2022/04/09 04:52:21;;;;;;;0.08;0.08;;;;;;;2.48;58.15;101035.16;7354250;19;20011;-66
2022/04/09 04:54:46;;;;;;;0.00;0.00;;;;;;;2.48;57.98;101040.31;7356782;19;20106;-66
2022/04/09 04:57:11;;;;;;;0.00;0.00;;;;;;;2.45;58.14;101040.28;7359435;19;20033;-66
2022/04/09 04:59:38;;;;;;;0.05;0.05;;;;;;;2.45;57.67;101046.31;7356457;19;20022;-66
2022/04/09 05:02:03;;;;;;;0.00;0.00;;;;;;;2.34;57.76;101033.25;7356546;19;20021;-66
2022/04/09 05:04:29;;;;;;;0.00;0.00;;;;;;;2.40;57.54;101053.09;7353871;19;20086;-65
2022/04/09 05:06:55;;;;;;;0.00;0.00;;;;;;;2.40;57.92;101057.41;7362034;19;21640;-66
2022/04/09 05:09:21;;;;;;;0.00;0.00;;;;;;;2.23;57.25;101029.66;7352096;19;20070;-66
2022/04/09 05:11:47;;;;;;;0.00;0.00;;;;;;;2.36;56.32;101065.91;7359762;19;20063;-66
2022/04/09 05:14:12;;;;;;;0.00;0.00;;;;;;;2.31;56.55;101064.13;7360516;19;20088;-66
2022/04/09 05:16:37;;;;;;;0.00;0.00;;;;;;;2.29;57.10;101070.97;7358381;19;20022;-65
2022/04/09 05:19:03;;;;;;;0.00;0.00;;;;;;;2.16;57.57;101057.84;7350866;19;20476;-65
2022/04/09 05:21:29;;;;;;;0.05;0.05;;;;;;;2.12;57.46;101061.19;7361746;19;20038;-66
2022/04/09 05:23:54;;;;;;;0.00;0.00;;;;;;;2.20;57.68;101078.53;7351795;19;20014;-65
2022/04/09 05:26:20;;;;;;;0.10;0.10;;;;;;;2.17;57.05;101081.03;7349669;19;20042;-66
2022/04/09 05:28:45;;;;;;;0.00;0.00;;;;;;;2.07;57.31;101066.28;7354857;19;20011;-66
2022/04/09 05:31:11;;;;;;;0.08;0.08;;;;;;;2.13;57.30;101080.97;7357296;19;20020;-66
2022/04/09 05:33:38;;;;;;;0.00;0.00;;;;;;;1.99;58.62;101058.41;7349127;19;20053;-65
2022/04/09 05:36:05;;;;;;;0.00;0.00;;;;;;;2.08;57.81;101078.34;7356373;19;20002;-66
2022/04/09 05:38:31;;;;;;;0.03;0.03;;;;;;;2.07;58.51;101089.44;7346947;19;20368;-66
2022/04/09 05:40:57;;;;;;;0.00;0.00;;;;;;;1.99;58.39;101070.44;7352786;19;20045;-65
2022/04/09 05:43:23;;;;;;;0.03;0.03;;;;;;;2.04;59.09;101081.69;7360622;19;20011;-67
2022/04/09 05:45:49;;;;;;;0.10;0.10;;;;;;;2.05;57.59;101081.69;7356602;19;20026;-65
2022/04/09 05:48:14;;;;;;;0.10;0.10;;;;;;;2.05;58.72;101086.00;7355343;19;20026;-65
2022/04/09 05:50:40;;;;;;;0.00;0.00;;;;;;;2.05;57.70;101091.16;7349056;19;20026;-63
2022/04/09 05:53:06;;;;;;;0.10;0.10;;;;;;;2.05;57.19;101086.00;7358165;19;20006;-66
2022/04/09 05:55:31;;;;;;;0.00;0.00;;;;;;;2.05;57.97;101080.84;7356404;19;20022;-65
2022/04/09 05:57:57;;;;;;;0.10;0.10;;;;;;;2.02;57.52;101081.63;7353192;19;20481;-64
2022/04/09 06:00:22;;;;;;;0.00;0.00;;;;;;;2.05;57.64;101092.00;7357968;19;20018;-66
2022/04/09 06:02:47;;;;;;;0.00;0.00;;;;;;;2.06;57.74;101085.16;7355214;19;20113;-65
2022/04/09 06:05:13;;;;;;;0.00;0.00;;;;;;;2.07;58.39;101089.44;7358208;19;20462;-66
2022/04/09 06:07:38;;;;;;;0.00;0.00;;;;;;;2.07;58.06;101089.44;7357250;19;20580;-66
2022/04/09 06:10:06;;;;;;;0.10;0.10;;;;;;;1.94;57.89;101064.34;7357443;19;20011;-66
2022/04/09 06:12:32;;;;;;;0.00;0.00;;;;;;;2.08;58.88;101093.78;7356143;19;20018;-65
2022/04/09 06:14:57;;;;;;;0.10;0.10;;;;;;;2.10;58.81;101094.66;7356814;19;25281;-66
2022/04/09 06:17:26;;;;;;;0.10;0.10;;;;;;;2.11;58.91;101093.81;7358745;19;20006;-66
2022/04/09 06:19:52;;;;;;;0.08;0.08;;;;;;;2.10;59.58;101094.66;7351978;19;20872;-65
2022/04/09 06:22:18;;;;;;;0.00;0.00;;;;;;;2.13;59.55;101094.75;7352488;19;20082;-66
2022/04/09 06:24:44;;;;;;;0.00;0.00;;;;;;;2.12;59.04;101098.13;7354900;19;20023;-66
2022/04/09 06:27:11;;;;;;;0.00;0.00;;;;;;;2.17;59.87;101109.38;7358599;19;20018;-66
2022/04/09 06:29:36;;;;;;;0.03;0.03;;;;;;;2.19;59.66;101107.72;7353836;19;20647;-65
2022/04/09 06:32:02;;;;;;;0.10;0.10;;;;;;;2.21;59.30;101098.31;7357126;19;20014;-65
2022/04/09 06:34:27;;;;;;;0.00;0.00;;;;;;;2.24;59.74;101108.69;7354051;19;20094;-66
2022/04/09 06:36:52;;;;;;;0.10;0.10;;;;;;;2.25;60.13;101105.25;7353402;19;20695;-66
2022/04/09 06:39:19;;;;;;;0.00;0.00;;;;;;;2.29;59.92;101107.03;7356104;19;20709;-66
2022/04/09 06:41:48;;;;;;;0.00;0.00;;;;;;;2.34;59.34;101115.72;7348534;19;23428;-64
2022/04/09 06:44:14;;;;;;;0.10;0.10;;;;;;;2.37;60.15;101116.59;7355252;19;20011;-67
2022/04/09 06:46:43;;;;;;;0.00;0.00;;;;;;;2.38;60.13;101123.50;7357288;19;20003;-66
2022/04/09 06:49:12;;;;;;;0.10;0.10;;;;;;;2.45;60.64;101138.25;7342880;19;20010;-66
2022/04/09 06:51:38;;;;;;;0.00;0.00;;;;;;;2.50;59.82;101134.03;7351177;19;20015;-65
2022/04/09 06:54:04;;;;;;;0.05;0.05;;;;;;;2.54;60.45;101135.81;7355084;19;20014;-66
2022/04/09 06:56:29;;;;;;;0.00;0.00;;;;;;;2.37;60.49;101098.56;7352635;19;21070;-66
2022/04/09 06:58:54;;;;;;;0.00;0.00;;;;;;;2.63;60.42;101138.53;7355686;19;20006;-66
2022/04/09 07:01:20;;;;;;;0.10;0.10;;;;;;;2.66;60.52;101137.72;7348239;19;20011;-66
2022/04/09 07:03:45;;;;;;;0.00;0.00;;;;;;;2.71;60.29;101139.53;7354526;19;20118;-67
2022/04/09 07:06:11;;;;;;;0.10;0.10;;;;;;;2.72;59.63;101137.81;7346494;19;20010;-66
2022/04/09 07:08:37;;;;;;;0.10;0.10;;;;;;;2.73;59.45;101136.97;7354603;19;20114;-65
2022/04/09 07:11:02;;;;;;;0.00;0.00;;;;;;;2.83;59.28;101147.47;7352582;19;20030;-66
2022/04/09 07:13:29;;;;;;;0.00;0.00;;;;;;;2.79;60.00;101140.53;7348078;19;20014;-66
2022/04/09 07:15:54;;;;;;;0.08;0.08;;;;;;;2.91;59.55;101149.31;7353559;19;20014;-66
2022/04/09 07:18:20;;;;;;;0.00;0.00;;;;;;;2.94;60.07;101157.97;7362987;19;21593;-67
2022/04/09 07:20:45;;;;;;;0.00;0.00;;;;;;;2.99;59.38;101164.06;7347435;19;20010;-67
2022/04/09 07:23:11;;;;;;;0.10;0.10;;;;;;;3.03;60.27;101159.81;7357407;19;20015;-65
2022/04/09 07:25:36;;;;;;;0.00;0.00;;;;;;;3.05;60.07;101161.59;7360098;19;20090;-66
2022/04/09 07:28:02;;;;;;;0.10;0.10;;;;;;;3.13;59.28;101172.00;7358723;19;19999;-66
2022/04/09 07:30:28;;;;;;;0.05;0.05;;;;;;;3.10;59.35;101159.06;7361478;19;20018;-67
2022/04/09 07:32:58;;;;;;;0.00;0.00;;;;;;;3.23;60.66;101173.88;7360932;19;20281;-66
2022/04/09 07:35:24;;;;;;;0.00;0.00;;;;;;;3.24;60.33;101165.28;7354855;19;20035;-65
2022/04/09 07:37:51;;;;;;;0.00;0.00;;;;;;;3.34;60.31;101172.31;7359497;19;20038;-65
2022/04/09 07:40:19;;;;;;;0.00;0.00;;;;;;;3.41;60.82;101183.63;7354299;19;20081;-66
2022/04/09 07:42:45;;;;;;;0.00;0.00;;;;;;;3.36;60.84;101162.03;7359927;19;20047;-66
2022/04/09 07:45:12;;;;;;;0.00;0.00;;;;;;;3.52;61.24;101171.72;7353062;19;20014;-66
2022/04/09 07:47:37;;;;;;;0.00;0.00;;;;;;;3.50;60.83;101146.75;7340928;19;20081;-65
2022/04/09 07:50:06;;;;;;;0.00;0.00;;;;;;;3.63;60.78;101153.78;7361694;19;20104;-66
2022/04/09 07:52:31;;;;;;;0.00;0.00;;;;;;;3.72;61.09;101153.91;7356446;19;20015;-65
2022/04/09 07:54:57;;;;;;;0.00;0.00;;;;;;;3.82;61.51;101163.50;7350377;19;20021;-66
2022/04/09 07:57:26;;;;;;;0.00;0.00;;;;;;;3.90;61.54;101154.13;7360963;19;20090;-66
2022/04/09 07:59:56;;;;;;;0.10;0.10;;;;;;;3.95;60.68;101143.81;7358276;19;20041;-65
2022/04/09 08:02:24;;;;;;;0.00;0.00;;;;;;;4.04;61.33;101148.25;7356212;19;20891;-65
2022/04/09 08:04:50;;;;;;;0.00;0.00;;;;;;;4.17;61.49;101160.47;7342269;19;20011;-66
2022/04/09 08:07:15;;;;;;;0.00;0.00;;;;;;;4.29;60.43;101157.97;7348710;19;20811;-65
2022/04/09 08:09:43;;;;;;;0.00;0.00;;;;;;;4.40;61.09;101158.94;7352121;19;20955;-65
2022/04/09 08:12:11;;;;;;;0.00;0.00;;;;;;;4.49;61.19;101160.78;7349846;19;20017;-65
2022/04/09 08:14:37;;;;;;;0.00;0.00;;;;;;;4.60;61.42;101147.94;7353158;19;20020;-66
2022/04/09 08:17:03;;;;;;;0.00;0.00;;;;;;;4.71;60.83;101154.06;7355118;19;20474;-66
2022/04/09 08:19:29;;;;;;;0.00;0.00;;;;;;;4.81;61.71;101162.78;7347018;19;20862;-67
2022/04/09 08:21:56;;;;;;;0.00;0.00;;;;;;;4.91;61.72;101173.19;7354869;19;20500;-66
2022/04/09 08:24:21;;;;;;;0.00;0.00;;;;;;;4.93;61.51;101148.22;7351448;19;20041;-64
2022/04/09 08:26:47;;;;;;;0.00;0.00;;;;;;;5.13;61.52;101160.44;7342060;19;20944;-66
2022/04/09 08:29:18;;;;;;;0.10;0.10;;;;;;;5.24;61.17;101169.16;7353145;19;20622;-65
2022/04/09 08:31:46;;;;;;;0.00;0.00;;;;;;;5.34;60.97;101176.13;7346487;19;20478;-64
2022/04/09 08:34:11;;;;;;;0.00;0.00;;;;;;;5.46;61.38;101171.00;7347982;19;20014;-65
2022/04/09 08:36:37;;;;;;;0.00;0.00;;;;;;;5.58;60.71;101171.94;7357718;19;20490;-64
2022/04/09 08:39:02;;;;;;;0.00;0.00;;;;;;;5.78;61.07;101172.91;7353546;19;20021;-65
2022/04/09 08:41:28;;;;;;;0.00;0.00;;;;;;;6.01;61.19;101169.56;7343534;19;20033;-66
2022/04/09 08:43:54;;;;;;;0.10;0.10;;;;;;;6.27;61.32;101178.28;7355466;19;20002;-65
2022/04/09 08:46:19;;;;;;;0.00;0.00;;;;;;;6.57;60.65;101180.06;7351197;19;20482;-66
2022/04/09 08:48:47;;;;;;;0.00;0.00;;;;;;;6.90;59.96;101181.84;7351503;19;20007;-65
2022/04/09 08:51:13;;;;;;;0.08;0.08;;;;;;;7.17;59.76;101185.28;7355391;19;20036;-67
2022/04/09 08:53:40;;;;;;;0.00;0.00;;;;;;;7.48;59.23;101181.75;7358821;19;20010;-66
2022/04/09 08:56:06;;;;;;;0.10;0.10;;;;;;;7.89;58.81;101193.75;7354399;19;20015;-67
2022/04/09 08:58:31;;;;;;;0.05;0.05;;;;;;;8.21;57.66;101190.16;7347194;19;20757;-66
2022/04/09 09:00:57;;;;;;;0.00;0.00;;;;;;;8.53;57.70;101188.28;7351107;19;20054;-66
2022/04/09 09:03:23;;;;;;;0.00;0.00;;;;;;;8.84;57.31;101182.84;7353063;19;20023;-66
2022/04/09 09:05:52;;;;;;;0.00;0.00;;;;;;;9.16;56.99;101194.72;7353606;19;20055;-67
2022/04/09 09:08:36;;;;;;;0.00;0.00;;;;;;;9.59;56.52;101192.56;7359025;19;20010;-66
2022/04/09 09:11:01;;;;;;;0.00;0.00;;;;;;;9.85;55.46;101203.56;7357952;19;20019;-65
2022/04/09 09:13:27;;;;;;;0.00;0.00;;;;;;;10.17;55.16;101198.84;7348274;19;20485;-66
2022/04/09 09:15:53;;;;;;;0.00;0.00;;;;;;;10.48;54.69;101200.16;7357971;19;20491;-65
2022/04/09 09:18:24;;;;;;;0.00;0.00;;;;;;;10.75;54.46;101192.84;7358255;19;20029;-67
2022/04/09 09:20:52;;;;;;;0.00;0.00;;;;;;;11.20;53.81;101195.56;7357722;19;20487;-66
2022/04/09 09:23:26;;;;;;;0.05;0.05;;;;;;;11.41;53.64;101169.91;7355648;19;20622;-66
2022/04/09 09:25:55;;;;;;;0.00;0.00;;;;;;;11.86;52.91;101197.81;7335066;19;20755;-65
2022/04/09 09:28:25;;;;;;;0.00;0.00;;;;;;;12.18;52.21;101205.03;7356737;19;20506;-66
2022/04/09 09:30:51;;;;;;;0.00;0.00;;;;;;;12.43;52.03;101213.22;7350452;19;21930;-66
2022/04/09 09:33:17;;;;;;;0.00;0.00;;;;;;;12.73;51.04;101209.91;7358975;19;20010;-67
2022/04/09 09:36:01;;;;;;;0.00;0.00;;;;;;;13.12;52.22;101201.97;7347570;19;20011;-66
2022/04/09 09:38:32;;;;;;;0.00;0.00;;;;;;;13.53;49.61;101223.66;7351424;19;20010;-66
2022/04/09 09:40:58;;;;;;;0.00;0.00;;;;;;;13.82;50.21;101224.66;7354147;19;20554;-66
2022/04/09 09:43:25;;;;;;;0.10;0.10;;;;;;;14.10;48.23;101207.22;7355436;19;20067;-65
2022/04/09 09:45:53;;;;;;;0.00;0.00;;;;;;;14.52;48.29;101223.47;7359762;19;20015;-66
2022/04/09 09:48:25;;;;;;;0.00;0.00;;;;;;;14.90;47.97;101229.31;7339533;19;20006;-66
2022/04/09 09:50:53;;;;;;;0.00;0.00;;;;;;;14.99;46.65;101209.72;7353347;19;20817;-67
2022/04/09 09:53:28;;;;;;;0.00;0.00;;;;;;;15.50;47.19;101230.78;7355714;19;20489;-66
2022/04/09 09:55:55;;;;;;;0.00;0.00;;;;;;;15.64;45.25;101222.44;7354907;19;20013;-66
2022/04/09 09:58:22;;;;;;;0.00;0.00;;;;;;;15.97;45.05;101238.84;7354234;19;20616;-65
2022/04/09 10:00:48;;;;;;;0.00;0.00;;;;;;;16.25;43.92;101230.75;7350131;19;20019;-66
2022/04/09 10:03:16;;;;;;;0.00;0.00;;;;;;;16.39;43.97;101218.84;7353908;19;20006;-66
2022/04/09 10:05:42;;;;;;;0.00;0.00;;;;;;;16.76;42.90;101227.03;7350869;19;20044;-66
2022/04/09 10:08:08;;;;;;;0.00;0.00;;;;;;;17.03;42.80;101229.47;7356765;19;20043;-66
2022/04/09 10:10:38;;;;;;;0.00;0.00;;;;;;;17.41;42.06;101234.94;7359383;19;20030;-65
2022/04/09 10:13:04;;;;;;;0.00;0.00;;;;;;;17.46;40.90;101217.97;7353584;19;20010;-66
2022/04/09 10:15:31;;;;;;;0.00;0.00;;;;;;;17.80;40.87;101233.25;7349216;19;20078;-66
2022/04/09 10:17:58;;;;;;;0.00;0.00;;;;;;;18.06;41.14;101239.16;7336082;19;20035;-66
2022/04/09 10:20:29;;;;;;;0.00;0.00;;;;;;;18.32;40.69;101236.16;7358042;19;20002;-66
2022/04/09 10:23:00;;;;;;;0.00;0.00;;;;;;;18.66;40.92;101231.94;7346871;19;20006;-65
2022/04/09 10:25:31;;;;;;;0.00;0.00;;;;;;;18.81;38.80;101233.88;7345112;19;20018;-65
2022/04/09 10:28:01;;;;;;;0.00;0.00;;;;;;;19.12;39.57;101241.16;7355838;19;20028;-66
2022/04/09 10:30:28;;;;;;;0.05;0.05;;;;;;;19.23;37.73;101239.78;7353315;19;21396;-66
2022/04/09 10:32:55;;;;;;;0.05;0.05;;;;;;;19.48;38.16;101250.00;7348157;19;20010;-67
2022/04/09 10:35:45;;;;;;;0.00;0.00;;;;;;;19.89;40.78;101235.47;7337182;19;20470;-66
2022/04/09 10:38:10;;;;;;;0.00;0.00;;;;;;;19.96;37.12;101231.53;7352379;19;20021;-66
2022/04/09 10:40:56;;;;;;;0.10;0.10;;;;;;;20.16;36.00;101234.91;7348184;19;21355;-66
2022/04/09 10:43:22;;;;;;;0.08;0.08;;;;;;;20.34;34.82;101235.72;7252645;19;2004630;-65
2022/04/09 10:46:04;;;;;;;0.10;0.10;;;;;;;20.62;37.87;101251.00;7349077;19;20180;-65
2022/04/09 10:48:32;;;;;;;0.00;0.00;;;;;;;20.63;34.13;101237.66;7354865;19;20941;-66
2022/04/09 10:50:58;;;;;;;0.10;0.10;;;;;;;20.96;34.77;101250.78;7358003;19;20061;-66
2022/04/09 10:53:26;;;;;;;0.00;0.00;;;;;;;21.11;33.70;101248.22;7360017;19;20010;-67
2022/04/09 10:56:26;;;;;;;0.10;0.10;;;;;;;21.35;36.20;101249.47;7358572;19;20923;-65
2022/04/09 10:59:08;;;;;;;0.08;0.08;;;;;;;21.48;35.94;101237.16;7260782;19;2004021;-66
2022/04/09 11:01:46;;;;;;;0.00;0.00;;;;;;;21.73;35.68;101241.00;7349879;19;20006;-66
2022/04/09 11:04:27;;;;;;;0.00;0.00;;;;;;;21.94;34.92;101250.31;7358388;19;20045;-65
2022/04/09 11:07:04;;;;;;;0.00;0.00;;;;;;;21.92;33.54;101246.91;7358607;19;20017;-66
2022/04/09 11:09:43;;;;;;;0.00;0.00;;;;;;;21.95;35.20;101235.22;7361921;19;20040;-66
2022/04/09 11:12:09;;;;;;;0.10;0.10;;;;;;;22.10;31.32;101242.25;7356921;19;20003;-66
2022/04/09 11:14:47;;;;;;;0.00;0.00;;;;;;;22.52;34.46;101243.19;7362908;19;20030;-66
2022/04/09 11:17:31;;;;;;;0.10;0.10;;;;;;;22.85;33.16;101247.25;7357385;19;20017;-66
2022/04/09 11:20:10;;;;;;;0.00;0.00;;;;;;;23.19;30.56;101240.59;7358222;19;20647;-65
2022/04/09 11:22:37;;;;;;;0.10;0.10;;;;;;;23.50;29.58;101240.22;7349204;19;20467;-66
2022/04/09 11:25:05;;;;;;;0.10;0.10;;;;;;;23.85;29.33;101231.63;7353461;19;20006;-65
2022/04/09 11:27:31;;;;;;;0.08;0.08;;;;;;;24.19;29.81;101237.28;7353828;19;20010;-66
2022/04/09 11:29:57;;;;;;;0.10;0.10;;;;;;;24.55;28.54;101234.63;7347768;19;20029;-66